Brendelen — EINR — position and weather

sailwx.info

Track history (hours):
 
Tides and Currents Weather Stations Pressure Air Temp Water Temp Dewpoint Dewpoint Depression Visibility Wind Speed Wind Dir Waves Ship Positions

Brendelen

Last reported at 2017-Sep-19 19:39 UTC. Time now 2017-Sep-21 17:54 UTC.
Position N 48°02' W 004°46'.

Length 64 m.

Type: Fishing. MMSI: 250512000.

Date/timePositionNaut miles runAvg speedWind from/ knotsBaromVisibWave heightAir tempDewpointWater temp
2017-Sep-19 19:39N 48°02' W 004°46'211.2
2017-Sep-19 19:29N 48°04' W 004°46'612.0
2017-Sep-19 19:00N 48°06' W 004°38'612.2
2017-Sep-19 18:30N 48°07' W 004°29'611.6
2017-Sep-19 18:00N 48°07' W 004°21'1 2.7
2017-Sep-19 17:31N 48°06' W 004°20'0 0.0
2017-Sep-19 17:00N 48°06' W 004°20'0 0.0
2017-Sep-19 16:30N 48°06' W 004°20'0 0.0
2017-Sep-19 16:00N 48°06' W 004°20'0 0.0
2017-Sep-19 15:30N 48°06' W 004°20'0 0.0
2017-Sep-19 15:00N 48°06' W 004°20'0 0.0
2017-Sep-19 14:30N 48°06' W 004°20'0 0.0
2017-Sep-19 14:00N 48°06' W 004°20'0 0.0
2017-Sep-19 13:31N 48°06' W 004°20'0 0.2
2017-Sep-19 13:00N 48°06' W 004°19'2 4.1
2017-Sep-19 12:30N 48°07' W 004°22'11 9.2
2017-Sep-19 11:18N 48°06' W 004°38'4 9.3
2017-Sep-19 10:54N 48°05' W 004°44'  
Track history (hours):
 
Tides and Currents Weather Stations Pressure Air Temp Water Temp Dewpoint Dewpoint Depression Visibility Wind Speed Wind Dir Waves Ship Positions

Brendelen

Last reported at 2017-Sep-19 19:39 UTC. Time now 2017-Sep-21 17:54 UTC.
Position N 48°02' W 004°46'.

Length 64 m.

Type: Fishing. MMSI: 250512000.

Date/timePositionNaut miles runAvg speedWind from/ knotsBaromVisibWave heightAir tempDewpointWater temp
2017-Sep-19 19:39N 48°02' W 004°46'211.2
2017-Sep-19 19:29N 48°04' W 004°46'612.0
2017-Sep-19 19:00N 48°06' W 004°38'612.2
2017-Sep-19 18:30N 48°07' W 004°29'611.6
2017-Sep-19 18:00N 48°07' W 004°21'1 2.7
2017-Sep-19 17:31N 48°06' W 004°20'0 0.0
2017-Sep-19 17:00N 48°06' W 004°20'0 0.0
2017-Sep-19 16:30N 48°06' W 004°20'0 0.0
2017-Sep-19 16:00N 48°06' W 004°20'0 0.0
2017-Sep-19 15:30N 48°06' W 004°20'0 0.0
2017-Sep-19 15:00N 48°06' W 004°20'0 0.0
2017-Sep-19 14:30N 48°06' W 004°20'0 0.0
2017-Sep-19 14:00N 48°06' W 004°20'0 0.0
2017-Sep-19 13:31N 48°06' W 004°20'0 0.2
2017-Sep-19 13:00N 48°06' W 004°19'2 4.1
2017-Sep-19 12:30N 48°07' W 004°22'11 9.2
2017-Sep-19 11:18N 48°06' W 004°38'4 9.3
2017-Sep-19 10:54N 48°05' W 004°44'  

Dump ship's entire track history